sensor_id;sensor_type;location;lat;lon;timestamp;P1;durP1;ratioP1;P2;durP2;ratioP2
980;SDS011;479;53.514;9.994;2023-05-07T00:00:48;6.83;;;5.57;;
980;SDS011;479;53.514;9.994;2023-05-07T00:03:16;8.97;;;6.80;;
980;SDS011;479;53.514;9.994;2023-05-07T00:05:44;9.70;;;7.23;;
980;SDS011;479;53.514;9.994;2023-05-07T00:08:11;7.10;;;5.80;;
980;SDS011;479;53.514;9.994;2023-05-07T00:10:38;10.07;;;6.43;;
980;SDS011;479;53.514;9.994;2023-05-07T00:13:07;9.93;;;7.30;;
980;SDS011;479;53.514;9.994;2023-05-07T00:15:33;8.50;;;5.70;;
980;SDS011;479;53.514;9.994;2023-05-07T00:18:00;7.27;;;6.07;;
980;SDS011;479;53.514;9.994;2023-05-07T00:20:27;10.67;;;7.80;;
980;SDS011;479;53.514;9.994;2023-05-07T00:22:54;6.47;;;5.67;;
980;SDS011;479;53.514;9.994;2023-05-07T00:25:21;6.87;;;5.60;;
980;SDS011;479;53.514;9.994;2023-05-07T00:27:48;9.83;;;6.70;;
980;SDS011;479;53.514;9.994;2023-05-07T00:30:16;6.27;;;5.67;;
980;SDS011;479;53.514;9.994;2023-05-07T00:32:43;6.47;;;5.67;;
980;SDS011;479;53.514;9.994;2023-05-07T00:35:11;6.63;;;5.03;;
980;SDS011;479;53.514;9.994;2023-05-07T00:37:38;6.97;;;6.30;;
980;SDS011;479;53.514;9.994;2023-05-07T00:40:06;6.73;;;5.90;;
980;SDS011;479;53.514;9.994;2023-05-07T00:42:33;6.43;;;5.47;;
980;SDS011;479;53.514;9.994;2023-05-07T00:45:00;7.60;;;5.53;;
980;SDS011;479;53.514;9.994;2023-05-07T00:47:30;7.00;;;6.17;;
980;SDS011;479;53.514;9.994;2023-05-07T00:49:57;7.73;;;5.50;;
980;SDS011;479;53.514;9.994;2023-05-07T00:52:25;4.33;;;3.47;;
980;SDS011;479;53.514;9.994;2023-05-07T00:54:52;3.08;;;2.88;;
980;SDS011;479;53.514;9.994;2023-05-07T00:57:20;6.43;;;4.30;;
980;SDS011;479;53.514;9.994;2023-05-07T00:59:48;5.63;;;5.03;;
980;SDS011;479;53.514;9.994;2023-05-07T01:02:16;7.80;;;6.27;;
980;SDS011;479;53.514;9.994;2023-05-07T01:04:45;5.63;;;4.77;;
980;SDS011;479;53.514;9.994;2023-05-07T01:07:12;6.77;;;4.67;;
980;SDS011;479;53.514;9.994;2023-05-07T01:09:39;7.53;;;5.67;;
980;SDS011;479;53.514;9.994;2023-05-07T01:12:06;5.03;;;4.53;;
980;SDS011;479;53.514;9.994;2023-05-07T01:14:34;3.50;;;3.20;;
980;SDS011;479;53.514;9.994;2023-05-07T01:17:01;7.53;;;5.20;;
980;SDS011;479;53.514;9.994;2023-05-07T01:19:29;7.10;;;5.27;;
980;SDS011;479;53.514;9.994;2023-05-07T01:22:01;5.73;;;4.03;;
980;SDS011;479;53.514;9.994;2023-05-07T01:24:33;7.07;;;5.90;;
980;SDS011;479;53.514;9.994;2023-05-07T01:27:04;5.30;;;4.80;;
980;SDS011;479;53.514;9.994;2023-05-07T01:29:32;6.50;;;5.47;;
980;SDS011;479;53.514;9.994;2023-05-07T01:32:00;6.80;;;5.13;;
980;SDS011;479;53.514;9.994;2023-05-07T01:34:28;6.80;;;5.67;;
980;SDS011;479;53.514;9.994;2023-05-07T01:36:58;8.73;;;5.93;;
980;SDS011;479;53.514;9.994;2023-05-07T01:39:27;5.40;;;4.77;;
980;SDS011;479;53.514;9.994;2023-05-07T01:41:56;7.60;;;4.40;;
980;SDS011;479;53.514;9.994;2023-05-07T01:44:25;3.70;;;2.80;;
980;SDS011;479;53.514;9.994;2023-05-07T01:46:53;6.63;;;5.23;;
980;SDS011;479;53.514;9.994;2023-05-07T01:49:21;6.00;;;5.23;;
980;SDS011;479;53.514;9.994;2023-05-07T01:51:47;5.77;;;4.90;;
980;SDS011;479;53.514;9.994;2023-05-07T01:54:15;5.13;;;4.30;;
980;SDS011;479;53.514;9.994;2023-05-07T01:56:43;6.27;;;5.57;;
980;SDS011;479;53.514;9.994;2023-05-07T01:59:11;7.20;;;5.10;;
980;SDS011;479;53.514;9.994;2023-05-07T02:01:38;5.80;;;5.20;;
980;SDS011;479;53.514;9.994;2023-05-07T02:04:05;4.70;;;4.20;;
980;SDS011;479;53.514;9.994;2023-05-07T02:06:32;6.23;;;5.30;;
980;SDS011;479;53.514;9.994;2023-05-07T02:09:04;6.47;;;5.30;;
980;SDS011;479;53.514;9.994;2023-05-07T02:11:31;6.73;;;5.70;;
980;SDS011;479;53.514;9.994;2023-05-07T02:13:58;5.27;;;4.67;;
980;SDS011;479;53.514;9.994;2023-05-07T02:16:26;6.00;;;5.50;;
980;SDS011;479;53.514;9.994;2023-05-07T02:18:54;7.03;;;5.53;;
980;SDS011;479;53.514;9.994;2023-05-07T02:21:21;5.87;;;5.27;;
980;SDS011;479;53.514;9.994;2023-05-07T02:23:48;6.30;;;4.63;;
980;SDS011;479;53.514;9.994;2023-05-07T02:26:15;6.80;;;6.17;;
980;SDS011;479;53.514;9.994;2023-05-07T02:28:42;5.67;;;4.50;;
980;SDS011;479;53.514;9.994;2023-05-07T02:31:09;6.10;;;5.03;;
980;SDS011;479;53.514;9.994;2023-05-07T02:33:37;7.17;;;5.40;;
980;SDS011;479;53.514;9.994;2023-05-07T02:36:07;6.80;;;6.00;;
980;SDS011;479;53.514;9.994;2023-05-07T02:38:36;7.20;;;5.30;;
980;SDS011;479;53.514;9.994;2023-05-07T02:41:04;5.60;;;5.10;;
980;SDS011;479;53.514;9.994;2023-05-07T02:43:31;7.37;;;5.73;;
980;SDS011;479;53.514;9.994;2023-05-07T02:46:01;5.83;;;5.17;;
980;SDS011;479;53.514;9.994;2023-05-07T02:48:28;4.57;;;4.10;;
980;SDS011;479;53.514;9.994;2023-05-07T02:50:57;8.30;;;6.13;;
980;SDS011;479;53.514;9.994;2023-05-07T02:53:24;5.73;;;4.90;;
980;SDS011;479;53.514;9.994;2023-05-07T02:55:51;7.03;;;5.90;;
980;SDS011;479;53.514;9.994;2023-05-07T02:58:19;7.30;;;4.80;;
980;SDS011;479;53.514;9.994;2023-05-07T03:00:46;6.67;;;5.97;;
980;SDS011;479;53.514;9.994;2023-05-07T03:03:21;5.60;;;5.07;;
980;SDS011;479;53.514;9.994;2023-05-07T03:05:49;7.00;;;5.77;;
980;SDS011;479;53.514;9.994;2023-05-07T03:08:17;10.67;;;6.20;;
980;SDS011;479;53.514;9.994;2023-05-07T03:10:44;5.57;;;4.50;;
980;SDS011;479;53.514;9.994;2023-05-07T03:13:11;6.17;;;5.50;;
980;SDS011;479;53.514;9.994;2023-05-07T03:15:38;6.07;;;4.80;;
980;SDS011;479;53.514;9.994;2023-05-07T03:18:05;9.40;;;7.10;;
980;SDS011;479;53.514;9.994;2023-05-07T03:20:32;9.90;;;7.23;;
980;SDS011;479;53.514;9.994;2023-05-07T03:22:59;4.10;;;3.73;;
980;SDS011;479;53.514;9.994;2023-05-07T03:25:27;8.57;;;6.67;;
980;SDS011;479;53.514;9.994;2023-05-07T03:27:55;9.03;;;6.80;;
980;SDS011;479;53.514;9.994;2023-05-07T03:30:26;9.03;;;6.47;;
980;SDS011;479;53.514;9.994;2023-05-07T03:32:53;5.53;;;5.00;;
980;SDS011;479;53.514;9.994;2023-05-07T03:35:20;9.17;;;7.00;;
980;SDS011;479;53.514;9.994;2023-05-07T03:37:47;9.07;;;7.40;;
980;SDS011;479;53.514;9.994;2023-05-07T03:40:14;7.93;;;7.13;;
980;SDS011;479;53.514;9.994;2023-05-07T03:42:49;9.20;;;6.57;;
980;SDS011;479;53.514;9.994;2023-05-07T03:45:18;6.80;;;5.47;;
980;SDS011;479;53.514;9.994;2023-05-07T03:47:52;9.23;;;7.37;;
980;SDS011;479;53.514;9.994;2023-05-07T03:50:20;7.87;;;6.70;;
980;SDS011;479;53.514;9.994;2023-05-07T03:52:48;5.17;;;4.20;;
980;SDS011;479;53.514;9.994;2023-05-07T03:55:17;7.53;;;5.60;;
980;SDS011;479;53.514;9.994;2023-05-07T03:57:51;7.70;;;6.00;;
980;SDS011;479;53.514;9.994;2023-05-07T04:00:19;10.10;;;7.10;;
980;SDS011;479;53.514;9.994;2023-05-07T04:02:47;9.20;;;7.07;;
980;SDS011;479;53.514;9.994;2023-05-07T04:05:19;7.60;;;5.77;;
980;SDS011;479;53.514;9.994;2023-05-07T04:07:49;10.13;;;7.27;;
980;SDS011;479;53.514;9.994;2023-05-07T04:10:20;5.40;;;4.60;;
980;SDS011;479;53.514;9.994;2023-05-07T04:12:50;8.88;;;6.88;;
980;SDS011;479;53.514;9.994;2023-05-07T04:15:20;7.70;;;6.23;;
980;SDS011;479;53.514;9.994;2023-05-07T04:17:47;7.60;;;5.70;;
980;SDS011;479;53.514;9.994;2023-05-07T04:20:17;6.93;;;5.43;;
980;SDS011;479;53.514;9.994;2023-05-07T04:22:49;8.10;;;7.27;;
980;SDS011;479;53.514;9.994;2023-05-07T04:25:16;8.20;;;7.00;;
980;SDS011;479;53.514;9.994;2023-05-07T04:27:43;6.60;;;5.90;;
980;SDS011;479;53.514;9.994;2023-05-07T04:30:13;5.30;;;4.80;;
980;SDS011;479;53.514;9.994;2023-05-07T04:32:40;6.83;;;5.37;;
980;SDS011;479;53.514;9.994;2023-05-07T04:35:07;7.23;;;5.93;;
980;SDS011;479;53.514;9.994;2023-05-07T04:37:35;7.17;;;6.03;;
980;SDS011;479;53.514;9.994;2023-05-07T04:40:02;7.43;;;6.00;;
980;SDS011;479;53.514;9.994;2023-05-07T04:42:30;7.20;;;6.17;;
980;SDS011;479;53.514;9.994;2023-05-07T04:44:58;6.00;;;5.40;;
980;SDS011;479;53.514;9.994;2023-05-07T04:47:27;8.60;;;5.97;;
980;SDS011;479;53.514;9.994;2023-05-07T04:49:55;7.13;;;6.10;;
980;SDS011;479;53.514;9.994;2023-05-07T04:52:22;4.10;;;3.70;;
980;SDS011;479;53.514;9.994;2023-05-07T04:54:49;9.20;;;5.67;;
980;SDS011;479;53.514;9.994;2023-05-07T04:57:16;7.47;;;6.43;;
980;SDS011;479;53.514;9.994;2023-05-07T04:59:43;4.70;;;4.30;;
980;SDS011;479;53.514;9.994;2023-05-07T05:02:10;5.87;;;5.30;;
980;SDS011;479;53.514;9.994;2023-05-07T05:04:39;7.13;;;5.50;;
980;SDS011;479;53.514;9.994;2023-05-07T05:07:06;8.23;;;6.40;;
980;SDS011;479;53.514;9.994;2023-05-07T05:09:33;7.13;;;5.30;;
980;SDS011;479;53.514;9.994;2023-05-07T05:12:00;6.47;;;4.93;;
980;SDS011;479;53.514;9.994;2023-05-07T05:14:28;10.27;;;5.83;;
980;SDS011;479;53.514;9.994;2023-05-07T05:16:55;8.23;;;6.40;;
980;SDS011;479;53.514;9.994;2023-05-07T05:19:22;7.43;;;5.73;;
980;SDS011;479;53.514;9.994;2023-05-07T05:21:51;7.37;;;5.83;;
980;SDS011;479;53.514;9.994;2023-05-07T05:24:18;6.80;;;5.33;;
980;SDS011;479;53.514;9.994;2023-05-07T05:26:45;5.20;;;4.80;;
980;SDS011;479;53.514;9.994;2023-05-07T05:29:12;6.30;;;5.70;;
980;SDS011;479;53.514;9.994;2023-05-07T05:31:41;7.00;;;5.80;;
980;SDS011;479;53.514;9.994;2023-05-07T05:34:08;8.63;;;6.90;;
980;SDS011;479;53.514;9.994;2023-05-07T05:36:36;6.40;;;5.57;;
980;SDS011;479;53.514;9.994;2023-05-07T05:39:05;8.60;;;6.37;;
980;SDS011;479;53.514;9.994;2023-05-07T05:41:32;6.13;;;5.53;;
980;SDS011;479;53.514;9.994;2023-05-07T05:44:00;8.87;;;5.77;;
980;SDS011;479;53.514;9.994;2023-05-07T05:46:26;8.43;;;6.20;;
980;SDS011;479;53.514;9.994;2023-05-07T05:48:54;7.50;;;6.10;;
980;SDS011;479;53.514;9.994;2023-05-07T05:51:22;4.83;;;3.93;;
980;SDS011;479;53.514;9.994;2023-05-07T05:53:49;6.40;;;5.10;;
980;SDS011;479;53.514;9.994;2023-05-07T05:56:17;6.60;;;5.23;;
980;SDS011;479;53.514;9.994;2023-05-07T05:58:45;8.27;;;6.33;;
980;SDS011;479;53.514;9.994;2023-05-07T06:01:13;7.60;;;5.73;;
980;SDS011;479;53.514;9.994;2023-05-07T06:03:40;5.90;;;5.17;;
980;SDS011;479;53.514;9.994;2023-05-07T06:06:12;8.60;;;5.97;;
980;SDS011;479;53.514;9.994;2023-05-07T06:08:41;5.93;;;4.50;;
980;SDS011;479;53.514;9.994;2023-05-07T06:11:10;7.00;;;5.57;;
980;SDS011;479;53.514;9.994;2023-05-07T06:13:41;6.87;;;5.17;;
980;SDS011;479;53.514;9.994;2023-05-07T06:16:08;6.87;;;5.10;;
980;SDS011;479;53.514;9.994;2023-05-07T06:18:36;7.00;;;5.10;;
980;SDS011;479;53.514;9.994;2023-05-07T06:21:03;6.70;;;5.97;;
980;SDS011;479;53.514;9.994;2023-05-07T06:23:32;8.07;;;6.67;;
980;SDS011;479;53.514;9.994;2023-05-07T06:26:00;6.30;;;5.70;;
980;SDS011;479;53.514;9.994;2023-05-07T06:28:32;5.33;;;4.83;;
980;SDS011;479;53.514;9.994;2023-05-07T06:31:13;8.40;;;5.80;;
980;SDS011;479;53.514;9.994;2023-05-07T06:33:45;6.13;;;5.53;;
980;SDS011;479;53.514;9.994;2023-05-07T06:36:13;7.30;;;5.40;;
980;SDS011;479;53.514;9.994;2023-05-07T06:38:41;7.83;;;6.27;;
980;SDS011;479;53.514;9.994;2023-05-07T06:41:07;5.60;;;4.40;;
980;SDS011;479;53.514;9.994;2023-05-07T06:43:37;6.80;;;5.90;;
980;SDS011;479;53.514;9.994;2023-05-07T06:46:28;12.60;;;6.27;;
980;SDS011;479;53.514;9.994;2023-05-07T06:48:55;4.60;;;4.10;;
980;SDS011;479;53.514;9.994;2023-05-07T06:51:22;6.70;;;5.03;;
980;SDS011;479;53.514;9.994;2023-05-07T06:53:49;9.37;;;6.20;;
980;SDS011;479;53.514;9.994;2023-05-07T06:56:16;7.90;;;5.80;;
980;SDS011;479;53.514;9.994;2023-05-07T06:58:43;6.33;;;5.53;;
980;SDS011;479;53.514;9.994;2023-05-07T07:01:11;8.17;;;6.27;;
980;SDS011;479;53.514;9.994;2023-05-07T07:03:39;8.60;;;6.77;;
980;SDS011;479;53.514;9.994;2023-05-07T07:06:06;8.20;;;5.63;;
980;SDS011;479;53.514;9.994;2023-05-07T07:08:33;9.90;;;6.10;;
980;SDS011;479;53.514;9.994;2023-05-07T07:11:01;8.43;;;5.23;;
980;SDS011;479;53.514;9.994;2023-05-07T07:13:28;10.93;;;6.83;;
980;SDS011;479;53.514;9.994;2023-05-07T07:15:55;6.37;;;5.77;;
980;SDS011;479;53.514;9.994;2023-05-07T07:18:22;6.90;;;6.03;;
980;SDS011;479;53.514;9.994;2023-05-07T07:20:52;5.57;;;4.70;;
980;SDS011;479;53.514;9.994;2023-05-07T07:26:01;4.17;;;3.87;;
980;SDS011;479;53.514;9.994;2023-05-07T07:28:31;8.63;;;4.53;;
980;SDS011;479;53.514;9.994;2023-05-07T07:30:58;3.97;;;3.60;;
980;SDS011;479;53.514;9.994;2023-05-07T07:33:25;4.53;;;4.03;;
980;SDS011;479;53.514;9.994;2023-05-07T07:35:55;5.17;;;4.77;;
980;SDS011;479;53.514;9.994;2023-05-07T07:38:22;6.43;;;5.60;;
980;SDS011;479;53.514;9.994;2023-05-07T07:40:48;5.27;;;4.87;;
980;SDS011;479;53.514;9.994;2023-05-07T07:43:16;4.30;;;3.90;;
980;SDS011;479;53.514;9.994;2023-05-07T07:45:43;6.33;;;5.17;;
980;SDS011;479;53.514;9.994;2023-05-07T07:48:11;6.93;;;5.53;;
980;SDS011;479;53.514;9.994;2023-05-07T07:50:39;4.60;;;4.20;;
980;SDS011;479;53.514;9.994;2023-05-07T07:53:08;5.23;;;4.50;;
980;SDS011;479;53.514;9.994;2023-05-07T07:55:37;5.13;;;4.70;;
980;SDS011;479;53.514;9.994;2023-05-07T07:58:14;5.97;;;5.47;;
980;SDS011;479;53.514;9.994;2023-05-07T08:07:09;5.10;;;4.60;;
980;SDS011;479;53.514;9.994;2023-05-07T08:09:44;4.50;;;4.10;;
980;SDS011;479;53.514;9.994;2023-05-07T08:12:19;4.60;;;4.20;;
980;SDS011;479;53.514;9.994;2023-05-07T08:14:47;5.30;;;4.80;;
980;SDS011;479;53.514;9.994;2023-05-07T08:17:17;4.37;;;3.57;;
980;SDS011;479;53.514;9.994;2023-05-07T08:19:47;6.03;;;4.50;;
980;SDS011;479;53.514;9.994;2023-05-07T08:22:17;5.90;;;5.30;;
980;SDS011;479;53.514;9.994;2023-05-07T08:30:42;5.00;;;4.53;;
980;SDS011;479;53.514;9.994;2023-05-07T08:33:10;4.80;;;4.40;;
980;SDS011;479;53.514;9.994;2023-05-07T08:35:37;5.40;;;4.90;;
980;SDS011;479;53.514;9.994;2023-05-07T08:38:06;4.70;;;4.27;;
980;SDS011;479;53.514;9.994;2023-05-07T08:40:34;3.27;;;2.97;;
980;SDS011;479;53.514;9.994;2023-05-07T08:43:08;8.37;;;5.00;;
980;SDS011;479;53.514;9.994;2023-05-07T08:45:37;4.80;;;4.17;;
980;SDS011;479;53.514;9.994;2023-05-07T08:48:14;5.97;;;4.77;;
980;SDS011;479;53.514;9.994;2023-05-07T08:50:44;5.07;;;3.80;;
980;SDS011;479;53.514;9.994;2023-05-07T08:53:15;6.17;;;5.67;;
980;SDS011;479;53.514;9.994;2023-05-07T08:55:43;5.20;;;4.70;;
980;SDS011;479;53.514;9.994;2023-05-07T08:58:12;5.67;;;4.87;;
980;SDS011;479;53.514;9.994;2023-05-07T09:00:39;5.80;;;5.17;;
980;SDS011;479;53.514;9.994;2023-05-07T09:03:09;4.00;;;3.17;;
980;SDS011;479;53.514;9.994;2023-05-07T09:05:38;6.10;;;5.20;;
980;SDS011;479;53.514;9.994;2023-05-07T09:08:07;5.77;;;5.13;;
980;SDS011;479;53.514;9.994;2023-05-07T09:10:39;7.80;;;5.27;;
980;SDS011;479;53.514;9.994;2023-05-07T09:13:06;6.60;;;4.30;;
980;SDS011;479;53.514;9.994;2023-05-07T09:15:34;3.63;;;3.23;;
980;SDS011;479;53.514;9.994;2023-05-07T09:18:02;7.80;;;5.23;;
980;SDS011;479;53.514;9.994;2023-05-07T09:20:32;5.40;;;4.90;;
980;SDS011;479;53.514;9.994;2023-05-07T09:23:04;4.73;;;3.67;;
980;SDS011;479;53.514;9.994;2023-05-07T09:25:34;5.00;;;4.40;;
980;SDS011;479;53.514;9.994;2023-05-07T09:28:12;5.73;;;5.17;;
980;SDS011;479;53.514;9.994;2023-05-07T09:30:39;8.23;;;5.50;;
980;SDS011;479;53.514;9.994;2023-05-07T09:33:11;4.77;;;4.27;;
980;SDS011;479;53.514;9.994;2023-05-07T09:35:48;9.13;;;5.13;;
980;SDS011;479;53.514;9.994;2023-05-07T09:38:21;5.63;;;5.10;;
980;SDS011;479;53.514;9.994;2023-05-07T09:41:01;5.83;;;4.50;;
980;SDS011;479;53.514;9.994;2023-05-07T09:43:33;4.90;;;4.40;;
980;SDS011;479;53.514;9.994;2023-05-07T09:46:03;5.70;;;4.93;;
980;SDS011;479;53.514;9.994;2023-05-07T09:48:35;4.97;;;4.57;;
980;SDS011;479;53.514;9.994;2023-05-07T09:51:09;7.13;;;5.57;;
980;SDS011;479;53.514;9.994;2023-05-07T09:53:45;5.87;;;4.90;;
980;SDS011;479;53.514;9.994;2023-05-07T09:56:13;9.97;;;7.50;;
980;SDS011;479;53.514;9.994;2023-05-07T09:58:44;4.07;;;3.60;;
980;SDS011;479;53.514;9.994;2023-05-07T10:01:13;6.33;;;5.13;;
980;SDS011;479;53.514;9.994;2023-05-07T10:03:41;4.50;;;4.07;;
980;SDS011;479;53.514;9.994;2023-05-07T10:06:12;6.40;;;5.70;;
980;SDS011;479;53.514;9.994;2023-05-07T10:08:40;6.27;;;5.67;;
980;SDS011;479;53.514;9.994;2023-05-07T10:11:08;4.80;;;4.40;;
980;SDS011;479;53.514;9.994;2023-05-07T10:13:41;4.80;;;4.40;;
980;SDS011;479;53.514;9.994;2023-05-07T10:16:09;5.70;;;5.20;;
980;SDS011;479;53.514;9.994;2023-05-07T10:18:43;6.30;;;5.70;;
980;SDS011;479;53.514;9.994;2023-05-07T10:21:27;5.07;;;4.57;;
980;SDS011;479;53.514;9.994;2023-05-07T10:24:16;5.50;;;5.00;;
980;SDS011;479;53.514;9.994;2023-05-07T10:26:54;4.57;;;3.47;;
980;SDS011;479;53.514;9.994;2023-05-07T10:29:25;3.60;;;3.30;;
980;SDS011;479;53.514;9.994;2023-05-07T10:32:06;5.13;;;4.60;;
980;SDS011;479;53.514;9.994;2023-05-07T10:34:47;5.67;;;5.03;;
980;SDS011;479;53.514;9.994;2023-05-07T10:37:18;4.70;;;4.30;;
980;SDS011;479;53.514;9.994;2023-05-07T10:39:45;7.33;;;4.40;;
980;SDS011;479;53.514;9.994;2023-05-07T10:42:14;5.73;;;5.23;;
980;SDS011;479;53.514;9.994;2023-05-07T10:44:47;6.50;;;5.40;;
980;SDS011;479;53.514;9.994;2023-05-07T10:47:21;4.80;;;4.40;;
980;SDS011;479;53.514;9.994;2023-05-07T10:53:01;6.33;;;5.13;;
980;SDS011;479;53.514;9.994;2023-05-07T11:02:04;5.60;;;5.03;;
980;SDS011;479;53.514;9.994;2023-05-07T11:04:38;4.77;;;4.03;;
980;SDS011;479;53.514;9.994;2023-05-07T11:07:30;5.60;;;5.10;;
980;SDS011;479;53.514;9.994;2023-05-07T11:10:10;5.23;;;4.70;;
980;SDS011;479;53.514;9.994;2023-05-07T11:15:45;4.80;;;4.40;;
980;SDS011;479;53.514;9.994;2023-05-07T11:18:27;5.77;;;5.13;;
980;SDS011;479;53.514;9.994;2023-05-07T11:21:14;4.30;;;4.00;;
980;SDS011;479;53.514;9.994;2023-05-07T11:24:06;5.30;;;4.80;;
980;SDS011;479;53.514;9.994;2023-05-07T11:26:47;5.23;;;4.73;;
980;SDS011;479;53.514;9.994;2023-05-07T11:29:16;4.27;;;3.73;;
980;SDS011;479;53.514;9.994;2023-05-07T11:31:48;5.23;;;4.73;;
980;SDS011;479;53.514;9.994;2023-05-07T11:34:20;4.80;;;4.23;;
980;SDS011;479;53.514;9.994;2023-05-07T11:36:49;5.20;;;4.70;;
980;SDS011;479;53.514;9.994;2023-05-07T11:39:23;5.57;;;4.97;;
980;SDS011;479;53.514;9.994;2023-05-07T11:41:53;4.03;;;3.73;;
980;SDS011;479;53.514;9.994;2023-05-07T11:44:20;3.50;;;3.20;;
980;SDS011;479;53.514;9.994;2023-05-07T11:46:47;4.73;;;4.33;;
980;SDS011;479;53.514;9.994;2023-05-07T11:49:15;6.00;;;4.20;;
980;SDS011;479;53.514;9.994;2023-05-07T11:51:42;4.40;;;4.00;;
980;SDS011;479;53.514;9.994;2023-05-07T11:54:10;4.50;;;4.07;;
980;SDS011;479;53.514;9.994;2023-05-07T11:56:38;4.33;;;3.93;;
980;SDS011;479;53.514;9.994;2023-05-07T11:59:07;5.17;;;4.67;;
980;SDS011;479;53.514;9.994;2023-05-07T12:01:35;4.50;;;4.10;;
980;SDS011;479;53.514;9.994;2023-05-07T12:04:02;4.57;;;4.17;;
980;SDS011;479;53.514;9.994;2023-05-07T12:06:30;4.77;;;2.77;;
980;SDS011;479;53.514;9.994;2023-05-07T12:08:57;4.30;;;3.90;;
980;SDS011;479;53.514;9.994;2023-05-07T12:11:24;3.90;;;3.60;;
980;SDS011;479;53.514;9.994;2023-05-07T12:13:53;4.80;;;4.13;;
980;SDS011;479;53.514;9.994;2023-05-07T12:16:22;4.33;;;3.80;;
980;SDS011;479;53.514;9.994;2023-05-07T12:18:50;4.70;;;4.30;;
980;SDS011;479;53.514;9.994;2023-05-07T12:21:17;4.00;;;3.60;;
980;SDS011;479;53.514;9.994;2023-05-07T12:23:44;5.40;;;5.00;;
980;SDS011;479;53.514;9.994;2023-05-07T12:26:12;4.50;;;4.10;;
980;SDS011;479;53.514;9.994;2023-05-07T12:28:39;3.43;;;3.13;;
980;SDS011;479;53.514;9.994;2023-05-07T12:31:06;3.17;;;2.80;;
980;SDS011;479;53.514;9.994;2023-05-07T12:33:37;3.90;;;3.60;;
980;SDS011;479;53.514;9.994;2023-05-07T12:36:08;4.73;;;4.33;;
980;SDS011;479;53.514;9.994;2023-05-07T12:38:35;4.63;;;4.27;;
980;SDS011;479;53.514;9.994;2023-05-07T12:41:03;4.50;;;4.13;;
980;SDS011;479;53.514;9.994;2023-05-07T12:43:32;2.90;;;2.70;;
980;SDS011;479;53.514;9.994;2023-05-07T12:46:00;3.50;;;3.20;;
980;SDS011;479;53.514;9.994;2023-05-07T12:48:28;2.70;;;2.50;;
980;SDS011;479;53.514;9.994;2023-05-07T12:50:56;4.40;;;3.43;;
980;SDS011;479;53.514;9.994;2023-05-07T12:53:25;3.90;;;3.60;;
980;SDS011;479;53.514;9.994;2023-05-07T12:55:54;4.70;;;2.90;;
980;SDS011;479;53.514;9.994;2023-05-07T12:58:24;3.13;;;2.93;;
980;SDS011;479;53.514;9.994;2023-05-07T13:00:52;4.07;;;3.70;;
980;SDS011;479;53.514;9.994;2023-05-07T13:03:23;2.80;;;2.60;;
980;SDS011;479;53.514;9.994;2023-05-07T13:05:51;3.90;;;3.43;;
980;SDS011;479;53.514;9.994;2023-05-07T13:08:28;3.37;;;3.07;;
980;SDS011;479;53.514;9.994;2023-05-07T13:10:57;6.47;;;3.30;;
980;SDS011;479;53.514;9.994;2023-05-07T13:13:25;4.60;;;4.10;;
980;SDS011;479;53.514;9.994;2023-05-07T13:15:52;4.13;;;3.83;;
980;SDS011;479;53.514;9.994;2023-05-07T13:18:18;3.53;;;3.23;;
980;SDS011;479;53.514;9.994;2023-05-07T13:20:45;3.30;;;3.10;;
980;SDS011;479;53.514;9.994;2023-05-07T13:23:12;3.00;;;2.80;;
980;SDS011;479;53.514;9.994;2023-05-07T13:25:41;3.60;;;3.20;;
980;SDS011;479;53.514;9.994;2023-05-07T13:28:08;3.37;;;3.17;;
980;SDS011;479;53.514;9.994;2023-05-07T13:30:35;3.13;;;2.93;;
980;SDS011;479;53.514;9.994;2023-05-07T13:33:02;3.87;;;3.47;;
980;SDS011;479;53.514;9.994;2023-05-07T13:35:29;3.50;;;3.20;;
980;SDS011;479;53.514;9.994;2023-05-07T13:37:56;3.47;;;3.27;;
980;SDS011;479;53.514;9.994;2023-05-07T13:40:23;3.33;;;2.60;;
980;SDS011;479;53.514;9.994;2023-05-07T13:42:51;3.50;;;3.20;;
980;SDS011;479;53.514;9.994;2023-05-07T13:45:19;1.57;;;1.50;;
980;SDS011;479;53.514;9.994;2023-05-07T13:47:46;3.97;;;3.07;;
980;SDS011;479;53.514;9.994;2023-05-07T13:50:14;4.03;;;3.20;;
980;SDS011;479;53.514;9.994;2023-05-07T13:52:42;3.17;;;2.97;;
980;SDS011;479;53.514;9.994;2023-05-07T13:55:15;3.07;;;2.80;;
980;SDS011;479;53.514;9.994;2023-05-07T13:57:42;2.60;;;2.40;;
980;SDS011;479;53.514;9.994;2023-05-07T14:00:11;3.73;;;2.97;;
980;SDS011;479;53.514;9.994;2023-05-07T14:02:41;2.70;;;2.47;;
980;SDS011;479;53.514;9.994;2023-05-07T14:05:09;2.70;;;2.53;;
980;SDS011;479;53.514;9.994;2023-05-07T14:07:36;2.23;;;2.13;;
980;SDS011;479;53.514;9.994;2023-05-07T14:10:03;3.10;;;2.90;;
980;SDS011;479;53.514;9.994;2023-05-07T14:12:31;2.90;;;2.70;;
980;SDS011;479;53.514;9.994;2023-05-07T14:14:58;2.27;;;2.17;;
980;SDS011;479;53.514;9.994;2023-05-07T14:17:26;2.77;;;2.57;;
980;SDS011;479;53.514;9.994;2023-05-07T14:19:54;2.70;;;2.50;;
980;SDS011;479;53.514;9.994;2023-05-07T14:22:21;2.73;;;2.53;;
980;SDS011;479;53.514;9.994;2023-05-07T14:24:48;3.03;;;2.83;;
980;SDS011;479;53.514;9.994;2023-05-07T14:27:17;2.97;;;2.73;;
980;SDS011;479;53.514;9.994;2023-05-07T14:29:44;2.80;;;2.60;;
980;SDS011;479;53.514;9.994;2023-05-07T14:32:16;2.80;;;2.60;;
980;SDS011;479;53.514;9.994;2023-05-07T14:34:44;2.17;;;2.07;;
980;SDS011;479;53.514;9.994;2023-05-07T14:37:12;3.90;;;3.17;;
980;SDS011;479;53.514;9.994;2023-05-07T14:39:39;4.00;;;2.60;;
980;SDS011;479;53.514;9.994;2023-05-07T14:42:07;3.37;;;3.10;;
980;SDS011;479;53.514;9.994;2023-05-07T14:44:34;3.00;;;2.80;;
980;SDS011;479;53.514;9.994;2023-05-07T14:47:01;2.93;;;2.73;;
980;SDS011;479;53.514;9.994;2023-05-07T14:49:28;3.10;;;2.80;;
980;SDS011;479;53.514;9.994;2023-05-07T14:51:58;3.43;;;3.23;;
980;SDS011;479;53.514;9.994;2023-05-07T14:54:25;2.73;;;2.53;;
980;SDS011;479;53.514;9.994;2023-05-07T14:56:55;2.43;;;2.33;;
980;SDS011;479;53.514;9.994;2023-05-07T14:59:22;2.13;;;2.03;;
980;SDS011;479;53.514;9.994;2023-05-07T15:01:50;3.40;;;3.20;;
980;SDS011;479;53.514;9.994;2023-05-07T15:04:17;3.77;;;3.40;;
980;SDS011;479;53.514;9.994;2023-05-07T15:06:44;3.27;;;3.07;;
980;SDS011;479;53.514;9.994;2023-05-07T15:09:13;2.37;;;2.20;;
980;SDS011;479;53.514;9.994;2023-05-07T15:11:40;4.17;;;2.93;;
980;SDS011;479;53.514;9.994;2023-05-07T15:14:07;3.40;;;3.13;;
980;SDS011;479;53.514;9.994;2023-05-07T15:16:34;3.07;;;2.87;;
980;SDS011;479;53.514;9.994;2023-05-07T15:19:01;2.80;;;2.60;;
980;SDS011;479;53.514;9.994;2023-05-07T15:21:28;2.93;;;2.73;;
980;SDS011;479;53.514;9.994;2023-05-07T15:23:56;2.83;;;2.63;;
980;SDS011;479;53.514;9.994;2023-05-07T15:26:24;3.93;;;3.57;;
980;SDS011;479;53.514;9.994;2023-05-07T15:28:51;3.03;;;2.83;;
980;SDS011;479;53.514;9.994;2023-05-07T15:31:20;3.63;;;3.33;;
980;SDS011;479;53.514;9.994;2023-05-07T15:33:48;3.47;;;3.27;;
980;SDS011;479;53.514;9.994;2023-05-07T15:36:17;4.15;;;3.42;;
980;SDS011;479;53.514;9.994;2023-05-07T15:38:44;3.00;;;2.80;;
980;SDS011;479;53.514;9.994;2023-05-07T15:41:11;3.50;;;3.20;;
980;SDS011;479;53.514;9.994;2023-05-07T15:43:43;2.53;;;2.30;;
980;SDS011;479;53.514;9.994;2023-05-07T15:46:11;2.47;;;2.37;;
980;SDS011;479;53.514;9.994;2023-05-07T15:48:38;3.43;;;3.13;;
980;SDS011;479;53.514;9.994;2023-05-07T15:51:05;3.87;;;3.50;;
980;SDS011;479;53.514;9.994;2023-05-07T15:53:34;3.00;;;2.80;;
980;SDS011;479;53.514;9.994;2023-05-07T15:56:01;2.87;;;2.67;;
980;SDS011;479;53.514;9.994;2023-05-07T15:58:28;3.03;;;2.80;;
980;SDS011;479;53.514;9.994;2023-05-07T16:00:57;2.73;;;2.60;;
980;SDS011;479;53.514;9.994;2023-05-07T16:03:24;2.37;;;2.27;;
980;SDS011;479;53.514;9.994;2023-05-07T16:05:51;3.20;;;2.90;;
980;SDS011;479;53.514;9.994;2023-05-07T16:08:18;3.33;;;2.97;;
980;SDS011;479;53.514;9.994;2023-05-07T16:10:45;2.50;;;2.40;;
980;SDS011;479;53.514;9.994;2023-05-07T16:13:12;3.03;;;2.70;;
980;SDS011;479;53.514;9.994;2023-05-07T16:15:40;4.80;;;2.70;;
980;SDS011;479;53.514;9.994;2023-05-07T16:18:09;2.90;;;2.80;;
980;SDS011;479;53.514;9.994;2023-05-07T16:20:36;3.10;;;2.40;;
980;SDS011;479;53.514;9.994;2023-05-07T16:23:03;2.90;;;2.60;;